sensor_id;sensor_type;location;lat;lon;timestamp;temperature;humidity
21193;DHT22;10754;51.106;7.164;2022-08-11T00:02:25;25.00;99.90
21193;DHT22;10754;51.106;7.164;2022-08-11T00:04:51;25.00;99.90
21193;DHT22;10754;51.106;7.164;2022-08-11T00:07:18;24.90;99.90
21193;DHT22;10754;51.106;7.164;2022-08-11T00:09:44;24.90;99.90
21193;DHT22;10754;51.106;7.164;2022-08-11T00:12:15;24.90;99.90
21193;DHT22;10754;51.106;7.164;2022-08-11T00:14:42;24.90;99.90
21193;DHT22;10754;51.106;7.164;2022-08-11T00:17:10;24.80;99.90
21193;DHT22;10754;51.106;7.164;2022-08-11T00:19:39;24.90;99.90
21193;DHT22;10754;51.106;7.164;2022-08-11T00:22:07;24.80;99.90
21193;DHT22;10754;51.106;7.164;2022-08-11T00:24:35;24.80;99.90
21193;DHT22;10754;51.106;7.164;2022-08-11T00:27:02;24.80;99.90
21193;DHT22;10754;51.106;7.164;2022-08-11T00:29:28;24.70;99.90
21193;DHT22;10754;51.106;7.164;2022-08-11T00:31:56;24.70;99.90
21193;DHT22;10754;51.106;7.164;2022-08-11T00:34:25;24.70;99.90
21193;DHT22;10754;51.106;7.164;2022-08-11T00:36:59;24.70;99.90
21193;DHT22;10754;51.106;7.164;2022-08-11T00:39:25;24.70;99.90
21193;DHT22;10754;51.106;7.164;2022-08-11T00:55:41;24.60;99.90
21193;DHT22;10754;51.106;7.164;2022-08-11T01:03:58;24.50;99.90
21193;DHT22;10754;51.106;7.164;2022-08-11T01:29:12;24.50;99.90
21193;DHT22;10754;51.106;7.164;2022-08-11T01:32:10;24.50;99.90
21193;DHT22;10754;51.106;7.164;2022-08-11T01:43:46;24.40;99.90
21193;DHT22;10754;51.106;7.164;2022-08-11T01:46:42;24.40;99.90
21193;DHT22;10754;51.106;7.164;2022-08-11T01:49:24;24.40;99.90
21193;DHT22;10754;51.106;7.164;2022-08-11T01:52:35;24.40;99.90
21193;DHT22;10754;51.106;7.164;2022-08-11T01:55:23;24.40;99.90
21193;DHT22;10754;51.106;7.164;2022-08-11T01:58:12;24.50;99.90
21193;DHT22;10754;51.106;7.164;2022-08-11T02:04:16;24.50;99.90
21193;DHT22;10754;51.106;7.164;2022-08-11T02:12:43;24.40;99.90
21193;DHT22;10754;51.106;7.164;2022-08-11T02:15:34;24.50;99.90
21193;DHT22;10754;51.106;7.164;2022-08-11T02:18:07;24.50;99.90
21193;DHT22;10754;51.106;7.164;2022-08-11T02:20:43;24.40;99.90
21193;DHT22;10754;51.106;7.164;2022-08-11T02:24:03;24.40;99.90
21193;DHT22;10754;51.106;7.164;2022-08-11T04:10:59;23.70;99.90
21193;DHT22;10754;51.106;7.164;2022-08-11T04:24:13;23.60;99.90
21193;DHT22;10754;51.106;7.164;2022-08-11T04:40:53;23.60;99.90
21193;DHT22;10754;51.106;7.164;2022-08-11T04:43:54;23.60;99.90
21193;DHT22;10754;51.106;7.164;2022-08-11T04:46:53;23.60;99.90
21193;DHT22;10754;51.106;7.164;2022-08-11T05:13:10;23.70;99.90
21193;DHT22;10754;51.106;7.164;2022-08-11T05:15:57;23.60;99.90
21193;DHT22;10754;51.106;7.164;2022-08-11T05:18:51;23.70;99.90
21193;DHT22;10754;51.106;7.164;2022-08-11T05:21:36;23.70;99.90
21193;DHT22;10754;51.106;7.164;2022-08-11T05:24:43;23.60;99.90
21193;DHT22;10754;51.106;7.164;2022-08-11T05:28:27;23.70;99.90
21193;DHT22;10754;51.106;7.164;2022-08-11T05:30:45;23.70;99.90
21193;DHT22;10754;51.106;7.164;2022-08-11T05:33:49;23.60;99.90
21193;DHT22;10754;51.106;7.164;2022-08-11T05:36:51;23.70;99.90
21193;DHT22;10754;51.106;7.164;2022-08-11T05:39:24;23.70;99.90
21193;DHT22;10754;51.106;7.164;2022-08-11T05:42:10;23.70;99.90
21193;DHT22;10754;51.106;7.164;2022-08-11T05:44:58;23.70;99.90
21193;DHT22;10754;51.106;7.164;2022-08-11T05:47:48;23.60;99.90
21193;DHT22;10754;51.106;7.164;2022-08-11T05:50:32;23.60;99.90
21193;DHT22;10754;51.106;7.164;2022-08-11T05:53:17;23.60;99.90
21193;DHT22;10754;51.106;7.164;2022-08-11T05:56:04;23.70;99.90
21193;DHT22;10754;51.106;7.164;2022-08-11T05:58:51;23.80;99.90
21193;DHT22;10754;51.106;7.164;2022-08-11T06:01:35;23.80;99.90
21193;DHT22;10754;51.106;7.164;2022-08-11T06:04:05;23.90;99.90
21193;DHT22;10754;51.106;7.164;2022-08-11T06:06:55;23.90;99.90
21193;DHT22;10754;51.106;7.164;2022-08-11T06:09:26;23.90;99.90
21193;DHT22;10754;51.106;7.164;2022-08-11T06:11:53;23.90;99.90
21193;DHT22;10754;51.106;7.164;2022-08-11T06:14:21;23.90;99.90
21193;DHT22;10754;51.106;7.164;2022-08-11T06:16:49;24.00;99.90
21193;DHT22;10754;51.106;7.164;2022-08-11T06:19:19;24.00;99.90
21193;DHT22;10754;51.106;7.164;2022-08-11T06:21:48;24.00;99.90
21193;DHT22;10754;51.106;7.164;2022-08-11T06:24:14;24.10;99.90
21193;DHT22;10754;51.106;7.164;2022-08-11T06:26:46;24.10;99.90
21193;DHT22;10754;51.106;7.164;2022-08-11T06:29:12;24.20;99.90
21193;DHT22;10754;51.106;7.164;2022-08-11T06:31:49;24.20;99.90
21193;DHT22;10754;51.106;7.164;2022-08-11T06:34:32;24.20;99.90
21193;DHT22;10754;51.106;7.164;2022-08-11T06:37:38;24.30;99.90
21193;DHT22;10754;51.106;7.164;2022-08-11T06:42:48;24.30;99.90
21193;DHT22;10754;51.106;7.164;2022-08-11T06:48:16;24.50;99.90
21193;DHT22;10754;51.106;7.164;2022-08-11T06:50:51;24.50;99.90
21193;DHT22;10754;51.106;7.164;2022-08-11T06:53:43;24.60;99.90
21193;DHT22;10754;51.106;7.164;2022-08-11T06:56:10;24.60;99.90
21193;DHT22;10754;51.106;7.164;2022-08-11T06:58:56;24.60;99.90
21193;DHT22;10754;51.106;7.164;2022-08-11T07:13:11;25.00;99.90
21193;DHT22;10754;51.106;7.164;2022-08-11T07:15:57;25.10;99.90
21193;DHT22;10754;51.106;7.164;2022-08-11T07:18:30;25.00;99.90
21193;DHT22;10754;51.106;7.164;2022-08-11T07:21:28;25.00;99.90
21193;DHT22;10754;51.106;7.164;2022-08-11T07:24:20;25.20;99.90
21193;DHT22;10754;51.106;7.164;2022-08-11T07:27:10;25.20;99.90
21193;DHT22;10754;51.106;7.164;2022-08-11T07:29:56;25.10;99.90
21193;DHT22;10754;51.106;7.164;2022-08-11T07:32:30;25.30;99.90
21193;DHT22;10754;51.106;7.164;2022-08-11T07:35:19;25.30;99.90
21193;DHT22;10754;51.106;7.164;2022-08-11T07:37:56;25.40;99.90
21193;DHT22;10754;51.106;7.164;2022-08-11T07:40:22;25.50;99.90
21193;DHT22;10754;51.106;7.164;2022-08-11T07:42:49;25.50;99.90
21193;DHT22;10754;51.106;7.164;2022-08-11T07:45:16;25.60;99.90
21193;DHT22;10754;51.106;7.164;2022-08-11T07:48:01;25.70;99.90
21193;DHT22;10754;51.106;7.164;2022-08-11T07:50:45;25.90;99.90
21193;DHT22;10754;51.106;7.164;2022-08-11T07:53:30;25.90;99.90
21193;DHT22;10754;51.106;7.164;2022-08-11T07:55:58;26.00;99.90
21193;DHT22;10754;51.106;7.164;2022-08-11T07:58:25;26.00;99.90
21193;DHT22;10754;51.106;7.164;2022-08-11T08:01:11;26.10;99.90
21193;DHT22;10754;51.106;7.164;2022-08-11T08:03:57;26.10;99.90
21193;DHT22;10754;51.106;7.164;2022-08-11T08:06:42;26.10;99.90
21193;DHT22;10754;51.106;7.164;2022-08-11T08:09:27;26.10;99.90
21193;DHT22;10754;51.106;7.164;2022-08-11T08:12:12;26.20;99.90
21193;DHT22;10754;51.106;7.164;2022-08-11T08:14:57;26.20;99.90
21193;DHT22;10754;51.106;7.164;2022-08-11T08:17:42;26.40;99.90
21193;DHT22;10754;51.106;7.164;2022-08-11T08:20:20;26.50;99.90
21193;DHT22;10754;51.106;7.164;2022-08-11T08:22:54;26.60;99.90
21193;DHT22;10754;51.106;7.164;2022-08-11T08:25:28;26.60;99.90
21193;DHT22;10754;51.106;7.164;2022-08-11T08:27:55;26.60;99.90
21193;DHT22;10754;51.106;7.164;2022-08-11T08:30:23;26.60;99.90
21193;DHT22;10754;51.106;7.164;2022-08-11T08:33:10;26.70;99.90
21193;DHT22;10754;51.106;7.164;2022-08-11T08:35:36;26.80;99.90
21193;DHT22;10754;51.106;7.164;2022-08-11T08:38:02;26.80;99.90
21193;DHT22;10754;51.106;7.164;2022-08-11T08:40:29;26.90;99.90
21193;DHT22;10754;51.106;7.164;2022-08-11T08:42:57;27.00;99.90
21193;DHT22;10754;51.106;7.164;2022-08-11T08:45:24;27.10;99.90
21193;DHT22;10754;51.106;7.164;2022-08-11T08:47:59;27.20;99.90
21193;DHT22;10754;51.106;7.164;2022-08-11T08:50:29;27.40;99.90
21193;DHT22;10754;51.106;7.164;2022-08-11T08:53:19;27.70;99.90
21193;DHT22;10754;51.106;7.164;2022-08-11T08:55:46;27.80;99.90
21193;DHT22;10754;51.106;7.164;2022-08-11T08:58:13;27.90;99.90
21193;DHT22;10754;51.106;7.164;2022-08-11T09:00:42;28.00;99.90
21193;DHT22;10754;51.106;7.164;2022-08-11T09:03:09;28.10;99.90
21193;DHT22;10754;51.106;7.164;2022-08-11T09:05:35;28.30;99.90
21193;DHT22;10754;51.106;7.164;2022-08-11T09:08:01;28.20;99.90
21193;DHT22;10754;51.106;7.164;2022-08-11T09:10:28;28.30;99.90
21193;DHT22;10754;51.106;7.164;2022-08-11T09:12:55;28.50;99.90
21193;DHT22;10754;51.106;7.164;2022-08-11T09:15:22;28.30;99.90
21193;DHT22;10754;51.106;7.164;2022-08-11T09:17:52;28.40;99.90
21193;DHT22;10754;51.106;7.164;2022-08-11T09:20:27;28.40;99.90
21193;DHT22;10754;51.106;7.164;2022-08-11T09:23:00;28.40;99.90
21193;DHT22;10754;51.106;7.164;2022-08-11T09:25:45;28.40;99.90
21193;DHT22;10754;51.106;7.164;2022-08-11T09:28:29;28.30;99.90
21193;DHT22;10754;51.106;7.164;2022-08-11T09:30:57;28.40;99.90
21193;DHT22;10754;51.106;7.164;2022-08-11T09:33:27;28.90;99.90
21193;DHT22;10754;51.106;7.164;2022-08-11T09:35:53;28.90;99.90
21193;DHT22;10754;51.106;7.164;2022-08-11T09:38:21;29.00;99.90
21193;DHT22;10754;51.106;7.164;2022-08-11T09:41:08;28.90;99.90
21193;DHT22;10754;51.106;7.164;2022-08-11T09:43:39;28.90;99.90
21193;DHT22;10754;51.106;7.164;2022-08-11T09:46:27;28.90;99.90
21193;DHT22;10754;51.106;7.164;2022-08-11T09:48:56;29.10;99.90
21193;DHT22;10754;51.106;7.164;2022-08-11T09:51:23;29.20;99.90
21193;DHT22;10754;51.106;7.164;2022-08-11T09:53:49;29.10;99.90
21193;DHT22;10754;51.106;7.164;2022-08-11T09:56:17;29.10;99.90
21193;DHT22;10754;51.106;7.164;2022-08-11T09:59:02;29.10;99.90
21193;DHT22;10754;51.106;7.164;2022-08-11T10:01:42;29.20;99.90
21193;DHT22;10754;51.106;7.164;2022-08-11T10:04:14;29.50;99.90
21193;DHT22;10754;51.106;7.164;2022-08-11T10:06:40;29.30;99.90
21193;DHT22;10754;51.106;7.164;2022-08-11T10:09:49;29.20;99.90
21193;DHT22;10754;51.106;7.164;2022-08-11T10:12:30;29.10;99.90
21193;DHT22;10754;51.106;7.164;2022-08-11T10:15:01;29.10;99.90
21193;DHT22;10754;51.106;7.164;2022-08-11T10:17:48;29.10;99.90
21193;DHT22;10754;51.106;7.164;2022-08-11T10:20:36;29.10;99.90
21193;DHT22;10754;51.106;7.164;2022-08-11T10:23:03;29.20;99.90
21193;DHT22;10754;51.106;7.164;2022-08-11T10:25:48;29.50;99.90
21193;DHT22;10754;51.106;7.164;2022-08-11T10:28:37;29.90;99.90
21193;DHT22;10754;51.106;7.164;2022-08-11T10:31:06;30.40;99.90
21193;DHT22;10754;51.106;7.164;2022-08-11T10:33:50;30.60;99.90
21193;DHT22;10754;51.106;7.164;2022-08-11T10:36:32;30.80;99.90
21193;DHT22;10754;51.106;7.164;2022-08-11T10:39:01;31.00;99.90
21193;DHT22;10754;51.106;7.164;2022-08-11T10:41:28;31.30;99.90
21193;DHT22;10754;51.106;7.164;2022-08-11T10:44:14;31.40;99.90
21193;DHT22;10754;51.106;7.164;2022-08-11T10:46:41;31.70;99.90
21193;DHT22;10754;51.106;7.164;2022-08-11T10:49:26;31.80;99.90
21193;DHT22;10754;51.106;7.164;2022-08-11T10:51:54;32.00;98.60
21193;DHT22;10754;51.106;7.164;2022-08-11T10:54:39;32.10;99.90
21193;DHT22;10754;51.106;7.164;2022-08-11T10:57:27;32.30;99.90
21193;DHT22;10754;51.106;7.164;2022-08-11T11:00:13;32.40;99.90
21193;DHT22;10754;51.106;7.164;2022-08-11T11:02:43;32.50;99.90
21193;DHT22;10754;51.106;7.164;2022-08-11T11:05:15;32.70;97.50
21193;DHT22;10754;51.106;7.164;2022-08-11T11:10:21;33.10;99.50
21193;DHT22;10754;51.106;7.164;2022-08-11T11:12:52;33.20;85.30
21193;DHT22;10754;51.106;7.164;2022-08-11T11:15:41;33.30;66.00
21193;DHT22;10754;51.106;7.164;2022-08-11T11:18:28;33.50;78.30
21193;DHT22;10754;51.106;7.164;2022-08-11T11:21:05;33.80;89.00
21193;DHT22;10754;51.106;7.164;2022-08-11T11:23:54;33.80;45.20
21193;DHT22;10754;51.106;7.164;2022-08-11T11:26:53;33.90;53.30
21193;DHT22;10754;51.106;7.164;2022-08-11T11:29:56;34.10;61.40
21193;DHT22;10754;51.106;7.164;2022-08-11T11:32:41;34.40;57.00
21193;DHT22;10754;51.106;7.164;2022-08-11T11:37:44;34.60;25.00
21193;DHT22;10754;51.106;7.164;2022-08-11T11:40:14;34.70;35.80
21193;DHT22;10754;51.106;7.164;2022-08-11T11:42:43;35.00;41.80
21193;DHT22;10754;51.106;7.164;2022-08-11T11:45:10;35.00;20.20
21193;DHT22;10754;51.106;7.164;2022-08-11T11:47:39;35.10;11.30
21193;DHT22;10754;51.106;7.164;2022-08-11T11:50:07;35.10;11.80
21193;DHT22;10754;51.106;7.164;2022-08-11T11:52:33;35.30;17.60
21193;DHT22;10754;51.106;7.164;2022-08-11T11:55:01;35.60;31.70
21193;DHT22;10754;51.106;7.164;2022-08-11T11:57:27;35.60;1.60
21193;DHT22;10754;51.106;7.164;2022-08-11T12:00:11;35.70;7.40
21193;DHT22;10754;51.106;7.164;2022-08-11T12:03:01;35.90;18.00
21193;DHT22;10754;51.106;7.164;2022-08-11T12:05:27;36.60;13.90
21193;DHT22;10754;51.106;7.164;2022-08-11T12:07:54;37.30;1.00
21193;DHT22;10754;51.106;7.164;2022-08-11T12:10:46;38.40;1.00
21193;DHT22;10754;51.106;7.164;2022-08-11T12:13:12;40.40;1.00
21193;DHT22;10754;51.106;7.164;2022-08-11T12:15:57;40.30;1.00
21193;DHT22;10754;51.106;7.164;2022-08-11T12:18:34;40.10;1.00
21193;DHT22;10754;51.106;7.164;2022-08-11T12:21:01;40.30;1.00
21193;DHT22;10754;51.106;7.164;2022-08-11T12:23:27;39.70;1.00
21193;DHT22;10754;51.106;7.164;2022-08-11T12:26:15;41.70;1.00
21193;DHT22;10754;51.106;7.164;2022-08-11T12:29:01;43.20;1.00
21193;DHT22;10754;51.106;7.164;2022-08-11T12:31:30;43.00;1.00
21193;DHT22;10754;51.106;7.164;2022-08-11T12:34:11;42.40;1.00
21193;DHT22;10754;51.106;7.164;2022-08-11T12:36:45;42.20;1.00
21193;DHT22;10754;51.106;7.164;2022-08-11T12:39:19;42.00;1.00
21193;DHT22;10754;51.106;7.164;2022-08-11T12:41:45;42.70;1.00
21193;DHT22;10754;51.106;7.164;2022-08-11T12:44:30;42.90;1.00
21193;DHT22;10754;51.106;7.164;2022-08-11T12:47:19;43.40;1.00
21193;DHT22;10754;51.106;7.164;2022-08-11T12:49:49;44.20;1.00
21193;DHT22;10754;51.106;7.164;2022-08-11T12:52:43;44.80;1.00
21193;DHT22;10754;51.106;7.164;2022-08-11T12:55:15;46.00;1.00
21193;DHT22;10754;51.106;7.164;2022-08-11T12:58:06;46.50;1.00
21193;DHT22;10754;51.106;7.164;2022-08-11T13:00:46;46.70;1.00
21193;DHT22;10754;51.106;7.164;2022-08-11T13:03:32;46.10;1.00
21193;DHT22;10754;51.106;7.164;2022-08-11T13:06:18;45.40;1.00
21193;DHT22;10754;51.106;7.164;2022-08-11T13:08:45;45.10;1.00
21193;DHT22;10754;51.106;7.164;2022-08-11T13:11:12;44.70;1.00
21193;DHT22;10754;51.106;7.164;2022-08-11T13:13:58;44.50;1.00
21193;DHT22;10754;51.106;7.164;2022-08-11T13:16:28;43.90;1.00
21193;DHT22;10754;51.106;7.164;2022-08-11T13:18:58;43.70;1.00
21193;DHT22;10754;51.106;7.164;2022-08-11T13:21:25;43.40;1.00
21193;DHT22;10754;51.106;7.164;2022-08-11T13:23:53;43.20;1.00
21193;DHT22;10754;51.106;7.164;2022-08-11T13:26:22;43.30;1.00
21193;DHT22;10754;51.106;7.164;2022-08-11T13:28:49;44.00;1.00
21193;DHT22;10754;51.106;7.164;2022-08-11T13:31:16;43.40;1.00
21193;DHT22;10754;51.106;7.164;2022-08-11T13:33:45;43.40;1.00
21193;DHT22;10754;51.106;7.164;2022-08-11T13:36:12;43.80;1.00
21193;DHT22;10754;51.106;7.164;2022-08-11T13:38:41;43.70;1.00
21193;DHT22;10754;51.106;7.164;2022-08-11T13:41:08;43.70;1.00
21193;DHT22;10754;51.106;7.164;2022-08-11T13:43:55;44.50;1.00
21193;DHT22;10754;51.106;7.164;2022-08-11T13:46:22;44.50;1.00
21193;DHT22;10754;51.106;7.164;2022-08-11T13:48:52;44.70;1.00
21193;DHT22;10754;51.106;7.164;2022-08-11T13:51:19;44.50;1.00
21193;DHT22;10754;51.106;7.164;2022-08-11T13:54:05;43.70;1.00
21193;DHT22;10754;51.106;7.164;2022-08-11T13:56:33;42.80;1.00
21193;DHT22;10754;51.106;7.164;2022-08-11T13:59:00;42.20;1.00
21193;DHT22;10754;51.106;7.164;2022-08-11T14:01:34;41.50;1.00
21193;DHT22;10754;51.106;7.164;2022-08-11T14:04:07;41.30;1.00
21193;DHT22;10754;51.106;7.164;2022-08-11T14:06:34;41.00;1.00
21193;DHT22;10754;51.106;7.164;2022-08-11T14:09:03;40.30;1.00
21193;DHT22;10754;51.106;7.164;2022-08-11T14:11:29;40.50;1.00
21193;DHT22;10754;51.106;7.164;2022-08-11T14:14:18;40.20;1.00
21193;DHT22;10754;51.106;7.164;2022-08-11T14:16:45;39.40;1.00
21193;DHT22;10754;51.106;7.164;2022-08-11T14:19:13;38.80;1.00
21193;DHT22;10754;51.106;7.164;2022-08-11T14:21:41;38.10;1.00
21193;DHT22;10754;51.106;7.164;2022-08-11T14:24:27;37.80;1.00
21193;DHT22;10754;51.106;7.164;2022-08-11T14:26:53;37.40;1.00
21193;DHT22;10754;51.106;7.164;2022-08-11T14:29:20;37.00;1.00
21193;DHT22;10754;51.106;7.164;2022-08-11T14:31:50;36.70;1.00
21193;DHT22;10754;51.106;7.164;2022-08-11T14:34:18;36.50;1.00
21193;DHT22;10754;51.106;7.164;2022-08-11T14:36:49;36.90;1.00
21193;DHT22;10754;51.106;7.164;2022-08-11T14:39:20;36.70;1.00
21193;DHT22;10754;51.106;7.164;2022-08-11T14:41:49;36.30;1.00
21193;DHT22;10754;51.106;7.164;2022-08-11T14:44:37;36.00;1.00
21193;DHT22;10754;51.106;7.164;2022-08-11T14:47:23;36.30;1.00
21193;DHT22;10754;51.106;7.164;2022-08-11T14:49:49;36.40;1.00
21193;DHT22;10754;51.106;7.164;2022-08-11T14:52:18;35.90;1.00
21193;DHT22;10754;51.106;7.164;2022-08-11T14:54:46;35.60;9.30
21193;DHT22;10754;51.106;7.164;2022-08-11T14:57:36;35.40;12.10
21193;DHT22;10754;51.106;7.164;2022-08-11T15:00:04;35.20;10.30
21193;DHT22;10754;51.106;7.164;2022-08-11T15:02:33;35.10;10.30
21193;DHT22;10754;51.106;7.164;2022-08-11T15:05:19;34.90;24.10
21193;DHT22;10754;51.106;7.164;2022-08-11T15:07:45;34.70;17.60
21193;DHT22;10754;51.106;7.164;2022-08-11T15:10:11;34.60;35.10
21193;DHT22;10754;51.106;7.164;2022-08-11T15:12:39;34.50;28.80
21193;DHT22;10754;51.106;7.164;2022-08-11T15:15:06;34.40;32.30
21193;DHT22;10754;51.106;7.164;2022-08-11T15:17:53;34.30;37.50
21193;DHT22;10754;51.106;7.164;2022-08-11T15:20:20;34.20;30.40
21193;DHT22;10754;51.106;7.164;2022-08-11T15:23:05;34.10;56.40
21193;DHT22;10754;51.106;7.164;2022-08-11T15:25:54;34.00;52.00
21193;DHT22;10754;51.106;7.164;2022-08-11T15:28:20;34.00;57.10
21193;DHT22;10754;51.106;7.164;2022-08-11T15:31:05;33.90;59.20
21193;DHT22;10754;51.106;7.164;2022-08-11T15:33:53;33.80;63.40
21193;DHT22;10754;51.106;7.164;2022-08-11T15:36:39;33.60;61.90
21193;DHT22;10754;51.106;7.164;2022-08-11T15:39:33;33.50;79.70
21193;DHT22;10754;51.106;7.164;2022-08-11T15:42:06;33.70;31.30
21193;DHT22;10754;51.106;7.164;2022-08-11T15:44:57;33.60;35.00
21193;DHT22;10754;51.106;7.164;2022-08-11T15:47:55;33.40;64.40
21193;DHT22;10754;51.106;7.164;2022-08-11T15:50:26;33.30;73.70
21193;DHT22;10754;51.106;7.164;2022-08-11T15:52:57;33.10;87.80
21193;DHT22;10754;51.106;7.164;2022-08-11T15:55:23;33.00;77.10
21193;DHT22;10754;51.106;7.164;2022-08-11T15:57:51;32.90;88.70
21193;DHT22;10754;51.106;7.164;2022-08-11T16:00:38;32.90;76.60
21193;DHT22;10754;51.106;7.164;2022-08-11T16:03:24;32.90;45.80
21193;DHT22;10754;51.106;7.164;2022-08-11T16:06:11;32.90;56.20
21193;DHT22;10754;51.106;7.164;2022-08-11T16:08:39;32.70;78.20
21193;DHT22;10754;51.106;7.164;2022-08-11T16:11:07;32.60;75.50
21193;DHT22;10754;51.106;7.164;2022-08-11T16:13:35;32.60;81.30
21193;DHT22;10754;51.106;7.164;2022-08-11T16:16:04;32.50;86.00
21193;DHT22;10754;51.106;7.164;2022-08-11T16:18:54;32.40;76.00
21193;DHT22;10754;51.106;7.164;2022-08-11T16:21:27;32.30;99.90
21193;DHT22;10754;51.106;7.164;2022-08-11T16:23:56;32.20;90.40
21193;DHT22;10754;51.106;7.164;2022-08-11T16:26:24;32.20;99.90
21193;DHT22;10754;51.106;7.164;2022-08-11T16:28:52;32.10;99.90
21193;DHT22;10754;51.106;7.164;2022-08-11T16:31:20;32.00;99.90
21193;DHT22;10754;51.106;7.164;2022-08-11T16:33:47;31.90;99.90
21193;DHT22;10754;51.106;7.164;2022-08-11T16:36:14;31.90;99.90
21193;DHT22;10754;51.106;7.164;2022-08-11T16:39:00;31.90;99.90
21193;DHT22;10754;51.106;7.164;2022-08-11T16:41:29;31.80;99.90
21193;DHT22;10754;51.106;7.164;2022-08-11T16:44:16;31.80;99.90
21193;DHT22;10754;51.106;7.164;2022-08-11T16:47:00;31.60;99.90
21193;DHT22;10754;51.106;7.164;2022-08-11T16:49:36;31.60;99.90
21193;DHT22;10754;51.106;7.164;2022-08-11T16:52:05;31.60;99.90
21193;DHT22;10754;51.106;7.164;2022-08-11T16:54:33;31.50;99.90
21193;DHT22;10754;51.106;7.164;2022-08-11T16:57:03;31.40;99.90
21193;DHT22;10754;51.106;7.164;2022-08-11T16:59:51;31.40;99.90
21193;DHT22;10754;51.106;7.164;2022-08-11T17:02:19;31.30;99.90
21193;DHT22;10754;51.106;7.164;2022-08-11T17:05:17;31.30;99.90
21193;DHT22;10754;51.106;7.164;2022-08-11T17:08:04;31.30;99.90
21193;DHT22;10754;51.106;7.164;2022-08-11T17:10:59;31.20;99.90
21193;DHT22;10754;51.106;7.164;2022-08-11T17:14:10;31.10;99.90
21193;DHT22;10754;51.106;7.164;2022-08-11T17:16:38;31.10;99.90
21193;DHT22;10754;51.106;7.164;2022-08-11T17:19:13;31.00;99.90
21193;DHT22;10754;51.106;7.164;2022-08-11T17:21:44;31.10;99.90
21193;DHT22;10754;51.106;7.164;2022-08-11T17:24:31;31.00;99.90
21193;DHT22;10754;51.106;7.164;2022-08-11T17:26:58;30.90;99.90
21193;DHT22;10754;51.106;7.164;2022-08-11T17:29:28;30.90;99.90
21193;DHT22;10754;51.106;7.164;2022-08-11T17:31:55;30.90;99.90
21193;DHT22;10754;51.106;7.164;2022-08-11T17:34:42;30.80;99.90
21193;DHT22;10754;51.106;7.164;2022-08-11T17:37:28;30.80;99.90
21193;DHT22;10754;51.106;7.164;2022-08-11T17:39:56;30.80;99.90
21193;DHT22;10754;51.106;7.164;2022-08-11T17:42:23;30.70;99.90
21193;DHT22;10754;51.106;7.164;2022-08-11T17:45:10;30.70;99.90
21193;DHT22;10754;51.106;7.164;2022-08-11T17:47:55;30.70;99.90
21193;DHT22;10754;51.106;7.164;2022-08-11T17:50:41;30.60;99.90
21193;DHT22;10754;51.106;7.164;2022-08-11T17:53:07;30.60;99.90
21193;DHT22;10754;51.106;7.164;2022-08-11T17:55:52;30.60;99.90
21193;DHT22;10754;51.106;7.164;2022-08-11T17:58:38;30.50;99.90
21193;DHT22;10754;51.106;7.164;2022-08-11T18:01:25;30.50;99.90
21193;DHT22;10754;51.106;7.164;2022-08-11T18:03:52;30.40;99.90
21193;DHT22;10754;51.106;7.164;2022-08-11T18:06:20;30.40;99.90
21193;DHT22;10754;51.106;7.164;2022-08-11T18:08:47;30.30;99.90
21193;DHT22;10754;51.106;7.164;2022-08-11T18:11:33;30.30;99.90
21193;DHT22;10754;51.106;7.164;2022-08-11T18:14:20;30.20;99.90
21193;DHT22;10754;51.106;7.164;2022-08-11T18:17:06;30.20;99.90
21193;DHT22;10754;51.106;7.164;2022-08-11T18:19:50;30.10;99.90
21193;DHT22;10754;51.106;7.164;2022-08-11T18:22:40;30.10;99.90
21193;DHT22;10754;51.106;7.164;2022-08-11T18:25:30;30.00;99.90
21193;DHT22;10754;51.106;7.164;2022-08-11T18:28:19;30.00;99.90
21193;DHT22;10754;51.106;7.164;2022-08-11T18:31:05;29.90;99.90
21193;DHT22;10754;51.106;7.164;2022-08-11T18:33:53;29.90;99.90
21193;DHT22;10754;51.106;7.164;2022-08-11T18:36:46;29.80;99.90
21193;DHT22;10754;51.106;7.164;2022-08-11T18:39:36;29.80;99.90
21193;DHT22;10754;51.106;7.164;2022-08-11T18:42:26;29.70;99.90
21193;DHT22;10754;51.106;7.164;2022-08-11T18:45:15;29.70;99.90
21193;DHT22;10754;51.106;7.164;2022-08-11T18:48:03;29.70;99.90
21193;DHT22;10754;51.106;7.164;2022-08-11T18:50:49;29.60;99.90
21193;DHT22;10754;51.106;7.164;2022-08-11T18:53:38;29.50;99.90
21193;DHT22;10754;51.106;7.164;2022-08-11T18:56:24;29.50;99.90
21193;DHT22;10754;51.106;7.164;2022-08-11T18:59:11;29.50;99.90
21193;DHT22;10754;51.106;7.164;2022-08-11T19:01:57;29.40;99.90
21193;DHT22;10754;51.106;7.164;2022-08-11T19:04:42;29.30;99.90
21193;DHT22;10754;51.106;7.164;2022-08-11T19:07:27;29.30;99.90
21193;DHT22;10754;51.106;7.164;2022-08-11T19:10:14;29.20;99.90
21193;DHT22;10754;51.106;7.164;2022-08-11T19:12:59;29.20;99.90
21193;DHT22;10754;51.106;7.164;2022-08-11T19:15:44;29.10;99.90
21193;DHT22;10754;51.106;7.164;2022-08-11T19:18:30;29.10;99.90
21193;DHT22;10754;51.106;7.164;2022-08-11T19:21:17;29.00;99.90
21193;DHT22;10754;51.106;7.164;2022-08-11T19:24:04;29.00;99.90
21193;DHT22;10754;51.106;7.164;2022-08-11T19:26:52;28.90;99.90
21193;DHT22;10754;51.106;7.164;2022-08-11T19:29:37;28.90;99.90
21193;DHT22;10754;51.106;7.164;2022-08-11T19:32:25;28.80;99.90
21193;DHT22;10754;51.106;7.164;2022-08-11T19:35:10;28.80;99.90
21193;DHT22;10754;51.106;7.164;2022-08-11T19:37:54;28.80;99.90
21193;DHT22;10754;51.106;7.164;2022-08-11T19:40:40;28.70;99.90
21193;DHT22;10754;51.106;7.164;2022-08-11T19:43:26;28.70;99.90
21193;DHT22;10754;51.106;7.164;2022-08-11T19:46:12;28.60;99.90
21193;DHT22;10754;51.106;7.164;2022-08-11T19:48:58;28.60;99.90
21193;DHT22;10754;51.106;7.164;2022-08-11T19:51:43;28.60;99.90
21193;DHT22;10754;51.106;7.164;2022-08-11T19:54:31;28.50;99.90
21193;DHT22;10754;51.106;7.164;2022-08-11T19:57:18;28.40;99.90
21193;DHT22;10754;51.106;7.164;2022-08-11T20:00:05;28.40;99.90
21193;DHT22;10754;51.106;7.164;2022-08-11T20:02:49;28.40;99.90
21193;DHT22;10754;51.106;7.164;2022-08-11T20:05:34;28.40;99.90
21193;DHT22;10754;51.106;7.164;2022-08-11T20:08:19;28.30;99.90
21193;DHT22;10754;51.106;7.164;2022-08-11T20:11:04;28.30;99.90
21193;DHT22;10754;51.106;7.164;2022-08-11T20:13:50;28.30;99.90
21193;DHT22;10754;51.106;7.164;2022-08-11T20:16:34;28.30;99.90
21193;DHT22;10754;51.106;7.164;2022-08-11T20:19:19;28.20;99.90
21193;DHT22;10754;51.106;7.164;2022-08-11T20:22:06;28.10;99.90
21193;DHT22;10754;51.106;7.164;2022-08-11T20:24:51;28.10;99.90
21193;DHT22;10754;51.106;7.164;2022-08-11T20:27:37;28.10;99.90
21193;DHT22;10754;51.106;7.164;2022-08-11T20:30:21;28.10;99.90
21193;DHT22;10754;51.106;7.164;2022-08-11T20:33:06;28.00;99.90
21193;DHT22;10754;51.106;7.164;2022-08-11T20:35:53;28.00;99.90
21193;DHT22;10754;51.106;7.164;2022-08-11T20:38:38;28.00;99.90